AAL3004 KMIA-KCLT
Flight info
| Callsign | AAL3004 |
|---|---|
| Flight time | 1h 34m |
| Altitude | 41000 |
| Route | ALTNN2 DUCEN Q87 VIYAP CHECR STOCR4 |
| Aircraft | B772/H-SDE2E3FGHIJ5LORVWXY/LB1D1 |
Departure
| Time | 2026-05-04 14:30 |
|---|---|
| Airport | Miami International Airport (KMIA) |
Arrival
| Time | 2026-05-04 16:05 |
|---|---|
| Airport | Charlotte Douglas International Airport (KCLT) |
| Time | Latitude | Longitude | Altitude | Speed | Heading |
|---|---|---|---|---|---|
| 2026-05-04 14:08 | 25.79795 | -80.27528 | 18 ft | 0 kts | 178° |
| 2026-05-04 14:19 | 25.79801 | -80.27528 | 18 ft | 1 kts | 178° |
| 2026-05-04 14:19 | 25.79811 | -80.27529 | 18 ft | 2 kts | 174° |
| 2026-05-04 14:19 | 25.79825 | -80.27532 | 18 ft | 2 kts | 163° |
| 2026-05-04 14:20 | 25.79839 | -80.27537 | 18 ft | 2 kts | 154° |
| 2026-05-04 14:20 | 25.79852 | -80.27545 | 18 ft | 2 kts | 146° |
| 2026-05-04 14:20 | 25.79864 | -80.27556 | 18 ft | 2 kts | 136° |
| 2026-05-04 14:21 | 25.79882 | -80.27581 | 18 ft | 2 kts | 118° |
| 2026-05-04 14:21 | 25.79888 | -80.27596 | 18 ft | 2 kts | 109° |
| 2026-05-04 14:21 | 25.79892 | -80.27612 | 18 ft | 2 kts | 100° |
| 2026-05-04 14:21 | 25.79894 | -80.27628 | 18 ft | 2 kts | 91° |
| 2026-05-04 14:22 | 25.79894 | -80.27638 | 18 ft | 1 kts | 86° |
| 2026-05-04 14:25 | 25.79960 | -80.27533 | 18 ft | 17 kts | 38° |
| 2026-05-04 14:25 | 25.80004 | -80.27509 | 18 ft | 0 kts | 16° |
| 2026-05-04 14:26 | 25.80019 | -80.27504 | 18 ft | 6 kts | 14° |
| 2026-05-04 14:26 | 25.80060 | -80.27531 | 18 ft | 10 kts | 292° |
| 2026-05-04 14:26 | 25.80064 | -80.27676 | 18 ft | 23 kts | 266° |
| 2026-05-04 14:26 | 25.80054 | -80.27868 | 18 ft | 27 kts | 270° |
| 2026-05-04 14:27 | 25.80051 | -80.28050 | 18 ft | 20 kts | 265° |
| 2026-05-04 14:27 | 25.80044 | -80.28241 | 18 ft | 31 kts | 270° |
| 2026-05-04 14:27 | 25.80027 | -80.28505 | 18 ft | 30 kts | 270° |
| 2026-05-04 14:27 | 25.80016 | -80.28735 | 18 ft | 29 kts | 265° |
| 2026-05-04 14:28 | 25.80014 | -80.28964 | 18 ft | 29 kts | 266° |
| 2026-05-04 14:28 | 25.80001 | -80.29187 | 18 ft | 28 kts | 269° |
| 2026-05-04 14:28 | 25.79993 | -80.29404 | 18 ft | 28 kts | 267° |
| 2026-05-04 14:28 | 25.79981 | -80.29628 | 18 ft | 31 kts | 266° |
| 2026-05-04 14:29 | 25.79996 | -80.30048 | 18 ft | 18 kts | 296° |
| 2026-05-04 14:29 | 25.80082 | -80.29790 | 18 ft | 66 kts | 87° |
| 2026-05-04 14:30 | 25.80119 | -80.29032 | 18 ft | 128 kts | 86° |
| 2026-05-04 14:30 | 25.80152 | -80.27904 | 166 ft | 156 kts | 86° |
| 2026-05-04 14:30 | 25.80148 | -80.25512 | 1282 ft | 163 kts | 85° |
| 2026-05-04 14:31 | 25.80207 | -80.24210 | 1724 ft | 179 kts | 85° |
| 2026-05-04 14:31 | 25.80359 | -80.21190 | 2601 ft | 214 kts | 85° |
| 2026-05-04 14:32 | 25.81023 | -80.17769 | 3589 ft | 251 kts | 56° |
| 2026-05-04 14:32 | 25.82289 | -80.16370 | 4107 ft | 265 kts | 29° |
| 2026-05-04 14:32 | 25.84027 | -80.15781 | 4899 ft | 265 kts | 3° |
| 2026-05-04 14:32 | 25.85895 | -80.15759 | 5658 ft | 270 kts | 358° |
| 2026-05-04 14:33 | 25.87778 | -80.15756 | 6382 ft | 275 kts | 359° |
| 2026-05-04 14:33 | 25.89707 | -80.15900 | 7079 ft | 276 kts | 346° |
| 2026-05-04 14:33 | 25.91553 | -80.16459 | 7774 ft | 277 kts | 340° |
| 2026-05-04 14:33 | 25.93387 | -80.17100 | 8440 ft | 279 kts | 340° |
| 2026-05-04 14:34 | 25.95258 | -80.17757 | 9078 ft | 281 kts | 339° |
| 2026-05-04 14:34 | 25.97099 | -80.18401 | 9674 ft | 283 kts | 339° |
| 2026-05-04 14:34 | 25.99052 | -80.19002 | 9969 ft | 300 kts | 347° |
| 2026-05-04 14:34 | 26.01203 | -80.19295 | 10002 ft | 324 kts | 352° |
| 2026-05-04 14:35 | 26.03540 | -80.19519 | 10040 ft | 344 kts | 352° |
| 2026-05-04 14:35 | 26.05994 | -80.19756 | 10157 ft | 359 kts | 352° |
| 2026-05-04 14:35 | 26.08520 | -80.20008 | 10330 ft | 371 kts | 352° |
| 2026-05-04 14:35 | 26.11143 | -80.20273 | 10762 ft | 375 kts | 351° |
| 2026-05-04 14:36 | 26.13719 | -80.20534 | 11298 ft | 374 kts | 351° |
| 2026-05-04 14:36 | 26.16348 | -80.20804 | 11745 ft | 377 kts | 351° |
| 2026-05-04 14:36 | 26.18980 | -80.21074 | 12163 ft | 380 kts | 351° |
| 2026-05-04 14:36 | 26.21613 | -80.21330 | 12583 ft | 383 kts | 351° |
| 2026-05-04 14:37 | 26.24264 | -80.21564 | 13008 ft | 385 kts | 351° |
| 2026-05-04 14:37 | 26.26955 | -80.21800 | 13453 ft | 386 kts | 350° |
| 2026-05-04 14:37 | 26.29669 | -80.22041 | 13827 ft | 390 kts | 351° |
| 2026-05-04 14:37 | 26.32381 | -80.22283 | 14187 ft | 392 kts | 351° |
| 2026-05-04 14:38 | 26.35100 | -80.22525 | 14570 ft | 395 kts | 350° |
| 2026-05-04 14:38 | 26.37855 | -80.22772 | 14989 ft | 396 kts | 351° |
| 2026-05-04 14:38 | 26.40588 | -80.23041 | 15348 ft | 398 kts | 350° |
| 2026-05-04 14:38 | 26.43368 | -80.23330 | 15674 ft | 402 kts | 349° |
| 2026-05-04 14:39 | 26.46164 | -80.23620 | 16042 ft | 403 kts | 350° |
| 2026-05-04 14:39 | 26.48979 | -80.23910 | 16432 ft | 404 kts | 350° |
| 2026-05-04 14:39 | 26.51803 | -80.24202 | 16800 ft | 406 kts | 350° |
| 2026-05-04 14:40 | 26.57457 | -80.24802 | 17406 ft | 410 kts | 348° |
| 2026-05-04 14:40 | 26.60268 | -80.25263 | 17709 ft | 411 kts | 346° |
| 2026-05-04 14:40 | 26.63084 | -80.25751 | 18104 ft | 411 kts | 346° |
| 2026-05-04 14:40 | 26.65977 | -80.26052 | 18443 ft | 418 kts | 354° |
| 2026-05-04 14:41 | 26.68867 | -80.26054 | 18822 ft | 419 kts | 355° |
| 2026-05-04 14:41 | 26.71804 | -80.26047 | 19127 ft | 422 kts | 355° |
| 2026-05-04 14:41 | 26.77732 | -80.26028 | 19720 ft | 426 kts | 355° |
| 2026-05-04 14:42 | 26.83690 | -80.26003 | 20311 ft | 429 kts | 354° |
| 2026-05-04 14:42 | 26.86696 | -80.25978 | 20625 ft | 431 kts | 355° |
| 2026-05-04 14:42 | 26.89680 | -80.25989 | 20928 ft | 429 kts | 351° |
| 2026-05-04 14:43 | 26.92618 | -80.26406 | 21081 ft | 426 kts | 343° |
| 2026-05-04 14:43 | 26.95475 | -80.27341 | 21189 ft | 424 kts | 334° |
| 2026-05-04 14:43 | 26.98121 | -80.28758 | 21473 ft | 419 kts | 325° |
| 2026-05-04 14:43 | 27.00498 | -80.30595 | 21862 ft | 412 kts | 317° |
| 2026-05-04 14:44 | 27.02557 | -80.32768 | 22194 ft | 406 kts | 309° |
| 2026-05-04 14:44 | 27.04311 | -80.35253 | 22476 ft | 404 kts | 303° |
| 2026-05-04 14:44 | 27.05917 | -80.37806 | 22772 ft | 404 kts | 303° |
| 2026-05-04 14:44 | 27.07736 | -80.40254 | 23151 ft | 407 kts | 310° |
| 2026-05-04 14:45 | 27.09864 | -80.42333 | 23535 ft | 411 kts | 319° |
| 2026-05-04 14:45 | 27.12317 | -80.44056 | 23790 ft | 419 kts | 327° |
| 2026-05-04 14:45 | 27.14989 | -80.45393 | 24017 ft | 425 kts | 332° |
| 2026-05-04 14:45 | 27.17770 | -80.46660 | 24171 ft | 429 kts | 333° |
| 2026-05-04 14:46 | 27.20553 | -80.47913 | 24369 ft | 431 kts | 332° |
| 2026-05-04 14:46 | 27.23342 | -80.49161 | 24572 ft | 432 kts | 332° |
| 2026-05-04 14:46 | 27.26127 | -80.50404 | 24772 ft | 433 kts | 333° |
| 2026-05-04 14:46 | 27.28950 | -80.51659 | 25030 ft | 433 kts | 333° |
| 2026-05-04 14:47 | 27.31742 | -80.52900 | 25219 ft | 434 kts | 333° |
| 2026-05-04 14:47 | 27.34543 | -80.54145 | 25372 ft | 436 kts | 333° |
| 2026-05-04 14:47 | 27.37391 | -80.55405 | 25504 ft | 438 kts | 334° |
| 2026-05-04 14:47 | 27.40277 | -80.56567 | 25746 ft | 438 kts | 335° |
| 2026-05-04 14:48 | 27.43143 | -80.57692 | 25942 ft | 438 kts | 335° |
| 2026-05-04 14:48 | 27.46034 | -80.58831 | 25992 ft | 440 kts | 335° |
| 2026-05-04 14:48 | 27.48919 | -80.59971 | 26118 ft | 442 kts | 334° |
| 2026-05-04 14:48 | 27.51810 | -80.61115 | 26249 ft | 442 kts | 335° |
| 2026-05-04 14:49 | 27.54704 | -80.62264 | 26392 ft | 442 kts | 335° |
| 2026-05-04 14:49 | 27.57624 | -80.63423 | 26524 ft | 442 kts | 335° |
| 2026-05-04 14:49 | 27.60520 | -80.64575 | 26636 ft | 443 kts | 334° |
| 2026-05-04 14:49 | 27.63430 | -80.65733 | 26789 ft | 443 kts | 334° |
| 2026-05-04 14:50 | 27.66342 | -80.66894 | 26978 ft | 442 kts | 334° |
| 2026-05-04 14:50 | 27.69229 | -80.68046 | 27091 ft | 443 kts | 334° |
| 2026-05-04 14:50 | 27.72137 | -80.69206 | 27256 ft | 442 kts | 334° |
| 2026-05-04 14:50 | 27.75060 | -80.70373 | 27373 ft | 442 kts | 334° |
| 2026-05-04 14:51 | 27.77930 | -80.71521 | 27435 ft | 444 kts | 334° |
| 2026-05-04 14:51 | 27.80885 | -80.72707 | 27583 ft | 454 kts | 334° |
| 2026-05-04 14:51 | 27.83862 | -80.73901 | 28332 ft | 455 kts | 334° |
| 2026-05-04 14:51 | 27.86821 | -80.75082 | 29268 ft | 452 kts | 333° |
| 2026-05-04 14:52 | 27.89796 | -80.76274 | 30065 ft | 450 kts | 333° |
| 2026-05-04 14:52 | 27.92757 | -80.77464 | 30751 ft | 452 kts | 333° |
| 2026-05-04 14:52 | 27.95692 | -80.78642 | 31508 ft | 451 kts | 333° |
| 2026-05-04 14:52 | 27.98640 | -80.79825 | 32402 ft | 447 kts | 333° |
| 2026-05-04 14:53 | 28.01551 | -80.80993 | 33303 ft | 442 kts | 333° |
| 2026-05-04 14:53 | 28.04426 | -80.82149 | 34143 ft | 439 kts | 333° |
| 2026-05-04 14:53 | 28.07363 | -80.83331 | 34818 ft | 439 kts | 333° |
| 2026-05-04 14:53 | 28.10264 | -80.84502 | 35415 ft | 441 kts | 333° |
| 2026-05-04 14:54 | 28.13150 | -80.85664 | 36049 ft | 440 kts | 333° |
| 2026-05-04 14:54 | 28.16041 | -80.86829 | 36631 ft | 440 kts | 333° |
| 2026-05-04 14:54 | 28.18926 | -80.87994 | 37104 ft | 441 kts | 333° |
| 2026-05-04 14:54 | 28.21860 | -80.89178 | 37596 ft | 442 kts | 333° |
| 2026-05-04 14:55 | 28.24750 | -80.90344 | 38153 ft | 441 kts | 333° |
| 2026-05-04 14:55 | 28.27644 | -80.91514 | 38506 ft | 443 kts | 333° |
| 2026-05-04 14:55 | 28.30517 | -80.92676 | 38800 ft | 446 kts | 333° |
| 2026-05-04 14:55 | 28.33473 | -80.93870 | 39191 ft | 446 kts | 333° |
| 2026-05-04 14:56 | 28.36372 | -80.95042 | 39692 ft | 444 kts | 333° |
| 2026-05-04 14:56 | 28.39282 | -80.96219 | 40226 ft | 441 kts | 333° |
| 2026-05-04 14:56 | 28.42169 | -80.97387 | 40635 ft | 440 kts | 332° |
| 2026-05-04 14:56 | 28.45024 | -80.98544 | 41000 ft | 439 kts | 332° |
| 2026-05-04 14:57 | 28.47944 | -80.99729 | 41127 ft | 442 kts | 332° |
| 2026-05-04 14:57 | 28.50829 | -81.00899 | 41119 ft | 440 kts | 332° |
| 2026-05-04 14:57 | 28.56568 | -81.03229 | 41128 ft | 439 kts | 332° |
| 2026-05-04 14:58 | 28.62349 | -81.05579 | 41119 ft | 440 kts | 332° |
| 2026-05-04 14:58 | 28.67153 | -81.07534 | 41120 ft | 440 kts | 332° |
| 2026-05-04 14:59 | 28.73843 | -81.10259 | 41120 ft | 438 kts | 332° |
| 2026-05-04 15:00 | 28.82454 | -81.13773 | 41133 ft | 438 kts | 332° |
| 2026-05-04 15:00 | 28.88217 | -81.16128 | 41134 ft | 439 kts | 332° |
| 2026-05-04 15:01 | 28.96873 | -81.19669 | 41128 ft | 439 kts | 332° |
| 2026-05-04 15:01 | 29.02613 | -81.22021 | 41128 ft | 437 kts | 332° |
| 2026-05-04 15:02 | 29.08333 | -81.24368 | 41129 ft | 438 kts | 332° |
| 2026-05-04 15:02 | 29.14075 | -81.26727 | 41130 ft | 437 kts | 332° |
| 2026-05-04 15:03 | 29.19820 | -81.29092 | 41131 ft | 439 kts | 332° |
| 2026-05-04 15:03 | 29.25585 | -81.31433 | 41133 ft | 440 kts | 335° |
| 2026-05-04 15:04 | 29.31729 | -81.32564 | 41137 ft | 454 kts | 348° |
| 2026-05-04 15:04 | 29.38035 | -81.32930 | 41130 ft | 456 kts | 348° |
| 2026-05-04 15:05 | 29.44374 | -81.33293 | 41117 ft | 454 kts | 348° |
| 2026-05-04 15:05 | 29.50699 | -81.33662 | 41134 ft | 458 kts | 348° |
| 2026-05-04 15:06 | 29.57052 | -81.34034 | 41136 ft | 455 kts | 348° |
| 2026-05-04 15:07 | 29.66511 | -81.34590 | 41135 ft | 452 kts | 348° |
| 2026-05-04 15:07 | 29.72813 | -81.34965 | 41167 ft | 456 kts | 348° |
| 2026-05-04 15:08 | 29.79143 | -81.35337 | 41154 ft | 451 kts | 348° |
| 2026-05-04 15:08 | 29.85408 | -81.35709 | 41140 ft | 451 kts | 348° |
| 2026-05-04 15:09 | 29.91694 | -81.36080 | 41149 ft | 454 kts | 348° |
| 2026-05-04 15:09 | 29.98027 | -81.36454 | 41161 ft | 452 kts | 348° |
| 2026-05-04 15:10 | 30.07391 | -81.37010 | 41160 ft | 452 kts | 348° |
| 2026-05-04 15:11 | 30.16799 | -81.37571 | 41160 ft | 450 kts | 348° |
| 2026-05-04 15:11 | 30.23077 | -81.37948 | 41126 ft | 451 kts | 348° |
| 2026-05-04 15:12 | 30.29369 | -81.38325 | 41155 ft | 451 kts | 348° |
| 2026-05-04 15:12 | 30.35612 | -81.38699 | 41168 ft | 451 kts | 348° |
| 2026-05-04 15:13 | 30.41921 | -81.39078 | 41120 ft | 449 kts | 348° |
| 2026-05-04 15:13 | 30.48166 | -81.39445 | 41142 ft | 452 kts | 348° |
| 2026-05-04 15:14 | 30.54450 | -81.39772 | 41164 ft | 448 kts | 348° |
| 2026-05-04 15:14 | 30.60639 | -81.40097 | 41136 ft | 447 kts | 348° |
| 2026-05-04 15:15 | 30.66905 | -81.40430 | 41145 ft | 453 kts | 348° |
| 2026-05-04 15:15 | 30.73187 | -81.40760 | 41176 ft | 446 kts | 348° |
| 2026-05-04 15:16 | 30.82536 | -81.41260 | 41090 ft | 453 kts | 348° |
| 2026-05-04 15:17 | 30.91897 | -81.41753 | 41138 ft | 445 kts | 348° |
| 2026-05-04 15:17 | 31.01249 | -81.42255 | 41125 ft | 449 kts | 348° |
| 2026-05-04 15:18 | 31.07527 | -81.42590 | 41129 ft | 450 kts | 348° |
| 2026-05-04 15:19 | 31.16850 | -81.43088 | 41140 ft | 449 kts | 348° |
| 2026-05-04 15:19 | 31.26259 | -81.42831 | 41158 ft | 465 kts | 2° |
| 2026-05-04 15:20 | 31.32576 | -81.40549 | 41149 ft | 478 kts | 10° |
| 2026-05-04 15:20 | 31.38872 | -81.37992 | 41146 ft | 486 kts | 10° |
| 2026-05-04 15:21 | 31.45219 | -81.35400 | 41149 ft | 479 kts | 10° |
| 2026-05-04 15:21 | 31.51528 | -81.32825 | 41035 ft | 480 kts | 10° |
| 2026-05-04 15:22 | 31.54690 | -81.31534 | 41122 ft | 480 kts | 11° |
| 2026-05-04 15:22 | 31.64206 | -81.27643 | 41129 ft | 481 kts | 10° |
| 2026-05-04 15:23 | 31.70478 | -81.25070 | 41116 ft | 480 kts | 11° |
| 2026-05-04 15:23 | 31.76824 | -81.22469 | 41131 ft | 484 kts | 11° |
| 2026-05-04 15:24 | 31.89476 | -81.17265 | 41136 ft | 483 kts | 11° |
| 2026-05-04 15:25 | 31.95831 | -81.14645 | 41131 ft | 484 kts | 11° |
| 2026-05-04 15:26 | 32.05307 | -81.10731 | 41128 ft | 482 kts | 11° |
| 2026-05-04 15:26 | 32.14775 | -81.06813 | 41157 ft | 480 kts | 11° |
| 2026-05-04 15:27 | 32.24260 | -81.02881 | 41155 ft | 483 kts | 12° |
| 2026-05-04 15:28 | 32.33724 | -80.98945 | 41119 ft | 480 kts | 11° |
| 2026-05-04 15:29 | 32.43225 | -80.94988 | 41176 ft | 482 kts | 12° |
| 2026-05-04 15:30 | 32.65326 | -80.85746 | 41152 ft | 482 kts | 12° |
| 2026-05-04 15:31 | 32.74681 | -80.81169 | 41135 ft | 492 kts | 21° |
| 2026-05-04 15:32 | 32.89711 | -80.71413 | 41168 ft | 493 kts | 22° |
| 2026-05-04 15:34 | 33.02584 | -80.63024 | 41162 ft | 491 kts | 22° |
| 2026-05-04 15:34 | 33.11592 | -80.57139 | 41148 ft | 492 kts | 22° |
| 2026-05-04 15:35 | 33.20537 | -80.51278 | 40805 ft | 485 kts | 22° |
| 2026-05-04 15:35 | 33.23500 | -80.49335 | 40042 ft | 489 kts | 22° |
| 2026-05-04 15:36 | 33.29511 | -80.45393 | 38186 ft | 496 kts | 22° |
| 2026-05-04 15:36 | 33.32561 | -80.43387 | 37335 ft | 495 kts | 22° |
| 2026-05-04 15:36 | 33.35569 | -80.41407 | 36539 ft | 494 kts | 22° |
| 2026-05-04 15:37 | 33.38567 | -80.39432 | 35862 ft | 492 kts | 22° |
| 2026-05-04 15:37 | 33.41571 | -80.37451 | 35173 ft | 493 kts | 22° |
| 2026-05-04 15:37 | 33.44579 | -80.35468 | 34337 ft | 497 kts | 22° |
| 2026-05-04 15:37 | 33.47600 | -80.33474 | 33321 ft | 500 kts | 24° |
| 2026-05-04 15:38 | 33.50654 | -80.31456 | 32302 ft | 503 kts | 24° |
| 2026-05-04 15:38 | 33.53707 | -80.29436 | 31292 ft | 504 kts | 24° |
| 2026-05-04 15:38 | 33.56762 | -80.27413 | 30458 ft | 502 kts | 24° |
| 2026-05-04 15:38 | 33.59789 | -80.25404 | 29932 ft | 492 kts | 24° |
| 2026-05-04 15:39 | 33.62759 | -80.23429 | 29363 ft | 485 kts | 24° |
| 2026-05-04 15:39 | 33.65670 | -80.21493 | 28962 ft | 474 kts | 24° |
| 2026-05-04 15:39 | 33.71223 | -80.17796 | 28753 ft | 442 kts | 24° |
| 2026-05-04 15:40 | 33.73889 | -80.16022 | 28358 ft | 434 kts | 24° |
| 2026-05-04 15:40 | 33.76527 | -80.14271 | 27744 ft | 433 kts | 24° |
| 2026-05-04 15:40 | 33.79140 | -80.12533 | 27165 ft | 430 kts | 24° |
| 2026-05-04 15:40 | 33.81753 | -80.10793 | 26625 ft | 427 kts | 24° |
| 2026-05-04 15:41 | 33.84318 | -80.09083 | 26106 ft | 424 kts | 24° |
| 2026-05-04 15:41 | 33.86891 | -80.07365 | 25605 ft | 420 kts | 24° |
| 2026-05-04 15:41 | 33.89450 | -80.05656 | 25111 ft | 417 kts | 24° |
| 2026-05-04 15:41 | 33.91959 | -80.03979 | 24616 ft | 414 kts | 24° |
| 2026-05-04 15:42 | 33.94488 | -80.02361 | 24118 ft | 407 kts | 19° |
| 2026-05-04 15:42 | 33.97105 | -80.01251 | 23635 ft | 396 kts | 9° |
| 2026-05-04 15:42 | 33.99804 | -80.00735 | 23172 ft | 386 kts | 358° |
| 2026-05-04 15:42 | 34.02408 | -80.00806 | 22799 ft | 373 kts | 348° |
| 2026-05-04 15:43 | 34.04941 | -80.01428 | 22573 ft | 370 kts | 339° |
| 2026-05-04 15:43 | 34.07338 | -80.02549 | 22343 ft | 372 kts | 332° |
| 2026-05-04 15:43 | 34.09684 | -80.03874 | 22082 ft | 368 kts | 330° |
| 2026-05-04 15:43 | 34.11964 | -80.05189 | 21827 ft | 363 kts | 330° |
| 2026-05-04 15:44 | 34.14240 | -80.06512 | 21576 ft | 361 kts | 330° |
| 2026-05-04 15:44 | 34.16515 | -80.07843 | 21325 ft | 360 kts | 330° |
| 2026-05-04 15:44 | 34.18737 | -80.09150 | 21076 ft | 359 kts | 330° |
| 2026-05-04 15:44 | 34.20984 | -80.10474 | 20808 ft | 358 kts | 330° |
| 2026-05-04 15:45 | 34.23216 | -80.11790 | 20551 ft | 357 kts | 330° |
| 2026-05-04 15:45 | 34.25441 | -80.13105 | 20302 ft | 354 kts | 330° |
| 2026-05-04 15:45 | 34.27662 | -80.14418 | 20054 ft | 352 kts | 331° |
| 2026-05-04 15:45 | 34.29858 | -80.15719 | 19801 ft | 351 kts | 331° |
| 2026-05-04 15:46 | 34.32050 | -80.17017 | 19551 ft | 351 kts | 331° |
| 2026-05-04 15:46 | 34.34216 | -80.18301 | 19299 ft | 350 kts | 331° |
| 2026-05-04 15:46 | 34.36391 | -80.19591 | 19054 ft | 349 kts | 331° |
| 2026-05-04 15:46 | 34.38589 | -80.20895 | 18807 ft | 347 kts | 331° |
| 2026-05-04 15:47 | 34.40751 | -80.22179 | 18554 ft | 346 kts | 331° |
| 2026-05-04 15:47 | 34.42885 | -80.23447 | 18311 ft | 345 kts | 331° |
| 2026-05-04 15:47 | 34.45047 | -80.24732 | 18026 ft | 345 kts | 331° |
| 2026-05-04 15:47 | 34.47197 | -80.26011 | 17732 ft | 343 kts | 331° |
| 2026-05-04 15:48 | 34.49334 | -80.27284 | 17468 ft | 340 kts | 331° |
| 2026-05-04 15:48 | 34.51461 | -80.28550 | 17221 ft | 339 kts | 331° |
| 2026-05-04 15:48 | 34.55695 | -80.31074 | 16709 ft | 337 kts | 331° |
| 2026-05-04 15:49 | 34.57776 | -80.32316 | 16465 ft | 332 kts | 331° |
| 2026-05-04 15:49 | 34.59830 | -80.33553 | 16215 ft | 324 kts | 329° |
| 2026-05-04 15:49 | 34.61663 | -80.35078 | 15987 ft | 318 kts | 321° |
| 2026-05-04 15:49 | 34.63397 | -80.36729 | 15759 ft | 317 kts | 320° |
| 2026-05-04 15:50 | 34.65110 | -80.38384 | 15332 ft | 317 kts | 320° |
| 2026-05-04 15:50 | 34.66872 | -80.40084 | 14391 ft | 330 kts | 320° |
| 2026-05-04 15:50 | 34.68682 | -80.41829 | 13336 ft | 344 kts | 321° |
| 2026-05-04 15:50 | 34.70583 | -80.43658 | 12413 ft | 351 kts | 321° |
| 2026-05-04 15:51 | 34.72484 | -80.45502 | 11793 ft | 348 kts | 320° |
| 2026-05-04 15:51 | 34.74332 | -80.47319 | 11311 ft | 342 kts | 320° |
| 2026-05-04 15:51 | 34.76160 | -80.49122 | 11001 ft | 334 kts | 320° |
| 2026-05-04 15:51 | 34.77978 | -80.50914 | 10972 ft | 339 kts | 320° |
| 2026-05-04 15:52 | 34.79814 | -80.52722 | 10972 ft | 340 kts | 320° |
| 2026-05-04 15:52 | 34.81734 | -80.54427 | 10977 ft | 342 kts | 329° |
| 2026-05-04 15:52 | 34.83836 | -80.55758 | 10986 ft | 343 kts | 332° |
| 2026-05-04 15:52 | 34.85966 | -80.57051 | 10996 ft | 343 kts | 332° |
| 2026-05-04 15:53 | 34.88101 | -80.58337 | 11003 ft | 341 kts | 332° |
| 2026-05-04 15:53 | 34.90250 | -80.59623 | 11000 ft | 340 kts | 332° |
| 2026-05-04 15:53 | 34.92379 | -80.60904 | 11001 ft | 342 kts | 332° |
| 2026-05-04 15:53 | 34.94519 | -80.62198 | 11001 ft | 342 kts | 332° |
| 2026-05-04 15:54 | 34.96661 | -80.63495 | 11003 ft | 343 kts | 332° |
| 2026-05-04 15:54 | 34.98789 | -80.64776 | 11003 ft | 341 kts | 332° |
| 2026-05-04 15:54 | 35.00908 | -80.66043 | 11001 ft | 335 kts | 332° |
| 2026-05-04 15:54 | 35.02932 | -80.67252 | 11000 ft | 316 kts | 332° |
| 2026-05-04 15:55 | 35.04901 | -80.68432 | 11008 ft | 314 kts | 332° |
| 2026-05-04 15:55 | 35.06850 | -80.69595 | 11005 ft | 313 kts | 332° |
| 2026-05-04 15:55 | 35.08806 | -80.70753 | 11011 ft | 311 kts | 332° |
| 2026-05-04 15:55 | 35.10691 | -80.71864 | 10994 ft | 294 kts | 332° |
| 2026-05-04 15:56 | 35.12484 | -80.72907 | 10991 ft | 272 kts | 332° |
| 2026-05-04 15:56 | 35.14156 | -80.73871 | 10750 ft | 261 kts | 332° |
| 2026-05-04 15:56 | 35.15767 | -80.74798 | 10379 ft | 256 kts | 332° |
| 2026-05-04 15:56 | 35.17382 | -80.75738 | 9871 ft | 257 kts | 332° |
| 2026-05-04 15:57 | 35.18980 | -80.76681 | 9367 ft | 258 kts | 332° |
| 2026-05-04 15:57 | 35.20586 | -80.77641 | 8906 ft | 257 kts | 332° |
| 2026-05-04 15:57 | 35.22186 | -80.78597 | 8472 ft | 255 kts | 332° |
| 2026-05-04 15:57 | 35.23786 | -80.79562 | 7972 ft | 256 kts | 332° |
| 2026-05-04 15:58 | 35.25373 | -80.80525 | 7518 ft | 255 kts | 332° |
| 2026-05-04 15:58 | 35.26926 | -80.81468 | 7260 ft | 245 kts | 332° |
| 2026-05-04 15:58 | 35.28438 | -80.82384 | 6850 ft | 240 kts | 332° |
| 2026-05-04 15:58 | 35.29919 | -80.83288 | 6358 ft | 240 kts | 332° |
| 2026-05-04 15:59 | 35.31410 | -80.84206 | 5851 ft | 240 kts | 332° |
| 2026-05-04 15:59 | 35.32892 | -80.85117 | 5371 ft | 239 kts | 332° |
| 2026-05-04 15:59 | 35.34388 | -80.86034 | 4845 ft | 241 kts | 332° |
| 2026-05-04 15:59 | 35.35887 | -80.86952 | 4347 ft | 241 kts | 332° |
| 2026-05-04 16:00 | 35.37392 | -80.87870 | 3848 ft | 241 kts | 332° |
| 2026-05-04 16:00 | 35.38828 | -80.88881 | 3478 ft | 241 kts | 317° |
| 2026-05-04 16:00 | 35.39738 | -80.90546 | 3253 ft | 232 kts | 286° |
| 2026-05-04 16:00 | 35.39798 | -80.92460 | 3029 ft | 225 kts | 254° |
| 2026-05-04 16:01 | 35.39013 | -80.94045 | 2984 ft | 220 kts | 222° |
| 2026-05-04 16:01 | 35.37679 | -80.94881 | 2983 ft | 212 kts | 196° |
| 2026-05-04 16:01 | 35.36253 | -80.95115 | 2991 ft | 207 kts | 180° |
| 2026-05-04 16:01 | 35.34834 | -80.94948 | 3005 ft | 202 kts | 176° |
| 2026-05-04 16:02 | 35.33483 | -80.94745 | 2958 ft | 191 kts | 176° |
| 2026-05-04 16:02 | 35.32238 | -80.94553 | 2737 ft | 169 kts | 176° |
| 2026-05-04 16:02 | 35.30053 | -80.94242 | 2195 ft | 147 kts | 178° |
| 2026-05-04 16:03 | 35.29063 | -80.94150 | 1921 ft | 140 kts | 178° |
| 2026-05-04 16:03 | 35.28104 | -80.94069 | 1647 ft | 133 kts | 178° |
| 2026-05-04 16:03 | 35.27152 | -80.93993 | 1617 ft | 141 kts | 178° |
| 2026-05-04 16:03 | 35.26174 | -80.93920 | 1522 ft | 143 kts | 178° |
| 2026-05-04 16:04 | 35.25166 | -80.93835 | 1337 ft | 143 kts | 176° |
| 2026-05-04 16:04 | 35.23178 | -80.93674 | 964 ft | 148 kts | 176° |
| 2026-05-04 16:04 | 35.22145 | -80.93583 | 757 ft | 146 kts | 176° |
| 2026-05-04 16:05 | 35.21234 | -80.93510 | 735 ft | 111 kts | 174° |
| 2026-05-04 16:05 | 35.20621 | -80.93456 | 723 ft | 45 kts | 178° |
| 2026-05-04 16:05 | 35.20380 | -80.93552 | 722 ft | 10 kts | 290° |
| 2026-05-04 16:06 | 35.20433 | -80.93581 | 723 ft | 9 kts | 358° |
| 2026-05-04 16:06 | 35.20674 | -80.93594 | 726 ft | 22 kts | 352° |
| 2026-05-04 16:07 | 35.20881 | -80.93611 | 729 ft | 21 kts | 346° |
| 2026-05-04 16:07 | 35.21339 | -80.93652 | 737 ft | 29 kts | 348° |
| 2026-05-04 16:08 | 35.21500 | -80.93772 | 736 ft | 4 kts | 319° |
| 2026-05-04 16:08 | 35.21289 | -80.94199 | 720 ft | 17 kts | 248° |
| 2026-05-04 16:09 | 35.21527 | -80.94517 | 722 ft | 41 kts | 318° |
| 2026-05-04 16:09 | 35.21717 | -80.94720 | 727 ft | 15 kts | 358° |
| 2026-05-04 16:10 | 35.21934 | -80.94720 | 733 ft | 8 kts | 19° |
| 2026-05-04 16:11 | 35.21972 | -80.94700 | 734 ft | 0 kts | 25° |